createdAt,value
2018-04-26T00:00:42.110Z,10.60
2018-04-26T00:03:10.191Z,8.23
2018-04-26T00:05:38.286Z,9.20
2018-04-26T00:08:05.819Z,10.13
2018-04-26T00:10:34.067Z,8.97
2018-04-26T00:13:02.295Z,11.40
2018-04-26T00:15:29.819Z,8.50
2018-04-26T00:17:57.398Z,8.57
2018-04-26T00:20:24.982Z,8.20
2018-04-26T00:22:53.513Z,9.70
2018-04-26T00:25:21.070Z,9.13
2018-04-26T00:27:48.607Z,9.30
2018-04-26T00:30:16.171Z,11.50
2018-04-26T00:32:44.327Z,7.00
2018-04-26T00:35:12.351Z,6.23
2018-04-26T00:37:40.451Z,6.10
2018-04-26T00:40:08.633Z,11.57
2018-04-26T00:42:38.062Z,6.23
2018-04-26T00:45:05.611Z,8.30
2018-04-26T00:47:33.551Z,6.97
2018-04-26T00:50:01.095Z,6.67
2018-04-26T00:52:28.767Z,6.03
2018-04-26T00:54:56.337Z,5.70
2018-04-26T00:57:23.904Z,6.30
2018-04-26T00:59:51.439Z,8.77
2018-04-26T01:02:19.002Z,6.80
2018-04-26T01:04:47.499Z,8.07
2018-04-26T01:07:15.023Z,7.03
2018-04-26T01:09:42.552Z,9.03
2018-04-26T01:12:10.726Z,9.10
2018-04-26T01:14:38.912Z,6.40
2018-04-26T01:17:06.448Z,11.53
2018-04-26T01:19:33.967Z,5.63
2018-04-26T01:22:01.545Z,12.87
2018-04-26T01:24:29.210Z,10.37
2018-04-26T01:26:56.812Z,5.30
2018-04-26T01:29:24.423Z,4.33
2018-04-26T01:31:51.969Z,6.37
2018-04-26T01:34:19.982Z,12.40
2018-04-26T01:37:00.039Z,4.57
2018-04-26T01:39:27.635Z,9.33
2018-04-26T01:41:56.111Z,7.07
2018-04-26T01:44:24.034Z,6.90
2018-04-26T01:46:51.562Z,5.67
2018-04-26T01:49:19.838Z,8.70
2018-04-26T01:51:47.358Z,7.67
2018-04-26T01:54:14.923Z,5.93
2018-04-26T01:56:42.474Z,5.80
2018-04-26T01:59:09.995Z,9.17
2018-04-26T02:01:37.517Z,6.03
2018-04-26T02:04:05.065Z,7.73
2018-04-26T02:06:33.252Z,4.13
2018-04-26T02:09:01.397Z,8.17
2018-04-26T02:11:29.652Z,12.60
2018-04-26T02:13:58.206Z,10.30
2018-04-26T02:16:25.739Z,10.47
2018-04-26T02:18:53.291Z,8.80
2018-04-26T02:21:20.863Z,9.07
2018-04-26T02:23:48.398Z,9.03
2018-04-26T02:26:16.115Z,9.30
2018-04-26T02:28:43.690Z,6.70
2018-04-26T02:31:11.216Z,9.67
2018-04-26T02:33:39.714Z,8.27
2018-04-26T02:36:07.927Z,7.20
2018-04-26T02:38:35.474Z,9.30
2018-04-26T02:41:04.000Z,6.77
2018-04-26T02:43:32.264Z,8.70
2018-04-26T02:45:59.834Z,7.50
2018-04-26T02:48:28.309Z,6.97
2018-04-26T02:50:56.427Z,8.60
2018-04-26T02:53:23.981Z,12.57
2018-04-26T02:55:51.515Z,7.63
2018-04-26T02:58:19.078Z,8.53
2018-04-26T03:00:46.613Z,5.30
2018-04-26T03:03:14.259Z,5.77
2018-04-26T03:05:42.427Z,7.80
2018-04-26T03:08:10.029Z,7.60
2018-04-26T03:10:37.521Z,7.83
2018-04-26T03:13:06.350Z,7.03
2018-04-26T03:15:33.878Z,10.77
2018-04-26T03:18:01.403Z,10.10
2018-04-26T03:20:29.059Z,8.07
2018-04-26T03:22:56.581Z,5.13
2018-04-26T03:25:24.130Z,8.87
2018-04-26T03:27:51.690Z,8.67
2018-04-26T03:30:19.820Z,6.40
2018-04-26T03:32:48.079Z,8.20
2018-04-26T03:35:16.123Z,6.20
2018-04-26T03:37:44.416Z,7.93
2018-04-26T03:40:12.062Z,5.73
2018-04-26T03:42:39.590Z,6.90
2018-04-26T03:45:07.484Z,8.40
2018-04-26T03:47:35.855Z,8.77
2018-04-26T03:50:03.927Z,10.20
2018-04-26T03:52:32.081Z,4.93
2018-04-26T03:54:59.677Z,8.00
2018-04-26T03:57:27.242Z,7.33
2018-04-26T04:00:06.681Z,10.23
2018-04-26T04:02:46.297Z,7.43
2018-04-26T04:05:26.246Z,6.13
2018-04-26T04:07:54.642Z,6.43
2018-04-26T04:10:22.984Z,9.43
2018-04-26T04:12:52.354Z,6.47
2018-04-26T04:15:19.881Z,5.67
2018-04-26T04:17:47.407Z,5.53
2018-04-26T04:20:15.857Z,6.70
2018-04-26T04:22:43.366Z,7.37
2018-04-26T04:25:10.954Z,6.80
2018-04-26T04:27:39.837Z,7.83
2018-04-26T04:30:07.396Z,7.93
2018-04-26T04:32:34.979Z,7.13
2018-04-26T04:35:03.071Z,8.63
2018-04-26T04:37:31.263Z,6.23
2018-04-26T04:39:59.007Z,8.43
2018-04-26T04:42:26.682Z,7.33
2018-04-26T04:44:54.843Z,8.07
2018-04-26T04:47:23.203Z,4.87
2018-04-26T04:49:51.519Z,7.97
2018-04-26T04:52:19.058Z,5.53
2018-04-26T04:54:46.629Z,12.07
2018-04-26T04:57:14.198Z,7.73
2018-04-26T04:59:41.732Z,8.67
2018-04-26T05:02:10.206Z,12.60
2018-04-26T05:04:38.234Z,9.37
2018-04-26T05:07:05.757Z,4.07
2018-04-26T05:09:33.288Z,6.23
2018-04-26T05:12:01.716Z,8.40
2018-04-26T05:14:30.194Z,6.50
2018-04-26T05:16:57.819Z,7.10
2018-04-26T05:19:25.341Z,4.10
2018-04-26T05:21:52.953Z,8.37
2018-04-26T05:24:20.522Z,7.10
2018-04-26T05:26:48.983Z,7.50
2018-04-26T05:29:16.530Z,6.77
2018-04-26T05:31:44.075Z,5.23
2018-04-26T05:34:12.497Z,6.27
2018-04-26T05:36:40.459Z,6.23
2018-04-26T05:39:08.758Z,6.53
2018-04-26T05:41:36.308Z,7.57
2018-04-26T05:44:04.503Z,8.50
2018-04-26T05:46:32.038Z,6.40
2018-04-26T05:49:00.226Z,7.20
2018-04-26T05:51:28.968Z,7.80
2018-04-26T05:53:56.486Z,5.57
2018-04-26T05:56:24.019Z,7.70
2018-04-26T05:58:51.567Z,6.43
2018-04-26T06:01:19.102Z,4.20
2018-04-26T06:03:46.762Z,8.80
2018-04-26T06:06:15.519Z,7.67
2018-04-26T06:08:44.309Z,5.30
2018-04-26T06:11:11.845Z,10.20
2018-04-26T06:13:40.338Z,4.43
2018-04-26T06:16:07.899Z,8.50
2018-04-26T06:18:35.444Z,5.50
2018-04-26T06:21:03.017Z,7.53
2018-04-26T06:23:31.138Z,6.50
2018-04-26T06:25:58.827Z,5.20
2018-04-26T06:28:26.348Z,4.03
2018-04-26T06:30:53.940Z,8.30
2018-04-26T06:33:21.466Z,5.90
2018-04-26T06:35:49.774Z,7.37
2018-04-26T06:38:17.304Z,5.30
2018-04-26T06:40:44.872Z,4.80
2018-04-26T06:43:13.288Z,5.87
2018-04-26T06:45:40.829Z,3.53
2018-04-26T06:48:09.313Z,5.03
2018-04-26T06:50:37.436Z,4.73
2018-04-26T06:53:04.991Z,4.30
2018-04-26T06:55:33.151Z,3.07
2018-04-26T06:58:00.662Z,7.03
2018-04-26T07:00:28.456Z,4.97
2018-04-26T07:02:56.193Z,3.93
2018-04-26T07:05:24.671Z,2.00
2018-04-26T07:07:52.195Z,4.93
2018-04-26T07:10:19.722Z,4.63
2018-04-26T07:12:47.977Z,5.13
2018-04-26T07:15:16.830Z,4.30
2018-04-26T07:17:44.363Z,3.23
2018-04-26T07:20:12.619Z,4.30
2018-04-26T07:22:41.062Z,2.17
2018-04-26T07:25:08.704Z,3.77
2018-04-26T07:27:36.246Z,4.30
2018-04-26T07:30:03.839Z,3.50
2018-04-26T07:32:31.365Z,5.17
2018-04-26T07:34:59.611Z,3.53
2018-04-26T07:37:28.496Z,2.27
2018-04-26T07:39:56.056Z,4.67
2018-04-26T07:42:23.575Z,2.57
2018-04-26T07:44:51.576Z,2.83
2018-04-26T07:47:19.620Z,4.50
2018-04-26T07:49:47.771Z,2.63
2018-04-26T07:52:15.310Z,2.53
2018-04-26T07:54:42.844Z,2.73
2018-04-26T07:57:10.406Z,5.63
2018-04-26T07:59:38.591Z,2.30
2018-04-26T08:02:06.125Z,4.20
2018-04-26T08:04:34.125Z,3.07
2018-04-26T08:07:02.170Z,4.80
2018-04-26T08:09:29.845Z,1.93
2018-04-26T08:11:58.623Z,2.87
2018-04-26T08:14:26.835Z,2.57
2018-04-26T08:16:54.361Z,3.43
2018-04-26T08:19:22.564Z,3.93
2018-04-26T08:21:50.094Z,3.00
2018-04-26T08:24:17.615Z,2.07
2018-04-26T08:26:45.185Z,3.17
2018-04-26T08:29:12.710Z,3.83
2018-04-26T08:31:40.246Z,3.53
2018-04-26T08:34:08.769Z,5.23
2018-04-26T08:36:37.194Z,3.03
2018-04-26T08:39:05.515Z,3.87
2018-04-26T08:41:33.059Z,4.50
2018-04-26T08:44:02.061Z,3.63
2018-04-26T08:46:29.709Z,2.50
2018-04-26T08:48:57.979Z,4.83
2018-04-26T08:51:26.546Z,3.80
2018-04-26T08:53:54.082Z,2.43
2018-04-26T08:56:21.624Z,4.50
2018-04-26T08:58:49.182Z,2.63
2018-04-26T09:01:17.396Z,3.00
2018-04-26T09:03:44.945Z,3.43
2018-04-26T09:06:13.199Z,3.70
2018-04-26T09:08:41.071Z,2.73
2018-04-26T09:11:08.711Z,6.00
2018-04-26T09:13:36.802Z,4.80
2018-04-26T09:16:05.458Z,1.90
2018-04-26T09:18:33.038Z,3.13
2018-04-26T09:21:00.569Z,4.57
2018-04-26T09:23:28.420Z,2.37
2018-04-26T09:25:55.941Z,2.90
2018-04-26T09:28:23.718Z,3.70
2018-04-26T09:30:51.299Z,3.47
2018-04-26T09:33:18.875Z,3.10
2018-04-26T09:35:47.032Z,3.80
2018-04-26T09:38:14.562Z,2.60
2018-04-26T09:40:42.236Z,3.27
2018-04-26T09:43:10.623Z,2.10
2018-04-26T09:45:38.249Z,4.77
2018-04-26T09:48:06.519Z,2.77
2018-04-26T09:50:35.275Z,2.67
2018-04-26T09:53:02.826Z,2.90
2018-04-26T09:55:30.565Z,1.93
2018-04-26T09:57:58.155Z,4.57
2018-04-26T10:00:28.833Z,3.63
2018-04-26T10:02:57.176Z,3.67
2018-04-26T10:05:31.307Z,2.87
2018-04-26T10:07:58.991Z,2.90
2018-04-26T10:10:26.622Z,2.43
2018-04-26T10:12:54.943Z,3.07
2018-04-26T10:15:22.507Z,2.50
2018-04-26T10:17:50.040Z,2.73
2018-04-26T10:20:17.616Z,2.40
2018-04-26T10:22:45.151Z,5.27
2018-04-26T10:25:12.691Z,5.87
2018-04-26T10:27:40.256Z,3.33
2018-04-26T10:30:07.791Z,3.10
2018-04-26T10:32:35.364Z,2.63
2018-04-26T10:35:03.921Z,2.23
2018-04-26T10:37:32.303Z,3.40
2018-04-26T10:42:36.768Z,2.90
2018-04-26T10:45:05.011Z,3.37
2018-04-26T10:47:33.186Z,3.40
2018-04-26T10:50:01.309Z,3.90
2018-04-26T10:52:30.613Z,4.03
2018-04-26T10:54:59.428Z,2.67
2018-04-26T10:57:27.093Z,2.20
2018-04-26T10:59:54.677Z,3.17
2018-04-26T11:02:22.210Z,2.97
2018-04-26T11:04:50.798Z,5.47
2018-04-26T11:07:18.319Z,2.33
2018-04-26T11:09:45.854Z,3.07
2018-04-26T11:12:14.099Z,2.67
2018-04-26T11:14:42.159Z,2.70
2018-04-26T11:17:09.905Z,5.63
2018-04-26T11:19:37.428Z,2.87
2018-04-26T11:22:05.032Z,2.53
2018-04-26T11:24:32.587Z,1.83
2018-04-26T11:27:00.107Z,2.20
2018-04-26T11:29:27.673Z,2.30
2018-04-26T11:31:55.244Z,3.23
2018-04-26T11:34:23.635Z,2.27
2018-04-26T11:36:51.943Z,4.07
2018-04-26T11:39:19.484Z,2.30
2018-04-26T11:41:47.892Z,3.77
2018-04-26T11:44:15.978Z,3.57
2018-04-26T11:46:43.622Z,4.17
2018-04-26T11:49:11.700Z,3.10
2018-04-26T11:51:40.103Z,5.17
2018-04-26T11:54:07.750Z,2.60
2018-04-26T11:56:35.287Z,2.73
2018-04-26T11:59:02.866Z,4.33
2018-04-26T12:01:30.435Z,2.23
2018-04-26T12:03:58.102Z,2.23
2018-04-26T12:06:26.222Z,3.50
2018-04-26T12:08:54.474Z,2.27
2018-04-26T12:11:22.626Z,3.03
2018-04-26T12:13:50.975Z,3.90
2018-04-26T12:16:20.007Z,3.47
2018-04-26T12:18:47.523Z,3.50
2018-04-26T12:21:15.086Z,3.23
2018-04-26T12:23:42.663Z,3.17
2018-04-26T12:26:10.191Z,1.63
2018-04-26T12:28:37.979Z,5.23
2018-04-26T12:31:05.514Z,3.50
2018-04-26T12:33:34.095Z,3.30
2018-04-26T12:36:02.630Z,3.00
2018-04-26T12:38:30.715Z,1.93
2018-04-26T12:40:58.707Z,3.60
2018-04-26T12:43:27.090Z,3.17
2018-04-26T12:45:54.660Z,3.57
2018-04-26T12:48:22.680Z,2.07
2018-04-26T12:50:50.710Z,4.13
2018-04-26T12:53:18.249Z,2.60
2018-04-26T12:55:45.775Z,3.23
2018-04-26T12:58:13.440Z,3.53
2018-04-26T13:00:40.992Z,3.10
2018-04-26T13:03:08.595Z,3.07
2018-04-26T13:05:37.087Z,3.07
2018-04-26T13:08:04.713Z,3.10
2018-04-26T13:10:32.246Z,2.37
2018-04-26T13:13:00.399Z,4.50
2018-04-26T13:15:28.047Z,2.93
2018-04-26T13:17:55.567Z,1.43
2018-04-26T13:20:23.273Z,2.17
2018-04-26T13:22:50.882Z,2.53
2018-04-26T13:25:18.484Z,3.10
2018-04-26T13:27:46.071Z,2.87
2018-04-26T13:30:13.611Z,2.73
2018-04-26T13:32:41.141Z,2.60
2018-04-26T13:35:09.174Z,1.20
2018-04-26T13:37:37.095Z,3.50
2018-04-26T13:40:04.751Z,1.70
2018-04-26T13:42:32.286Z,3.00
2018-04-26T13:45:00.288Z,1.83
2018-04-26T13:47:28.563Z,3.00
2018-04-26T13:49:57.044Z,1.57
2018-04-26T13:52:24.602Z,1.90
2018-04-26T13:54:52.148Z,1.60
2018-04-26T13:57:19.730Z,2.80
2018-04-26T13:59:47.279Z,1.60
2018-04-26T14:02:14.840Z,1.53
2018-04-26T14:04:43.243Z,2.43
2018-04-26T14:07:10.778Z,2.13
2018-04-26T14:09:38.469Z,1.40
2018-04-26T14:12:06.780Z,2.43
2018-04-26T14:14:34.895Z,1.60
2018-04-26T14:17:02.433Z,3.37
2018-04-26T14:19:30.111Z,1.90
2018-04-26T14:21:58.312Z,2.83
2018-04-26T14:24:25.851Z,1.70
2018-04-26T14:26:53.419Z,3.70
2018-04-26T14:29:21.159Z,1.83
2018-04-26T14:31:48.625Z,2.77
2018-04-26T14:34:16.749Z,2.00
2018-04-26T14:36:45.178Z,2.27
2018-04-26T14:39:12.707Z,2.90
2018-04-26T14:41:41.255Z,2.37
2018-04-26T14:44:09.547Z,2.30
2018-04-26T14:46:38.492Z,2.07
2018-04-26T14:49:06.727Z,2.37
2018-04-26T14:51:34.738Z,2.10
2018-04-26T14:54:02.283Z,1.43
2018-04-26T14:56:29.851Z,1.73
2018-04-26T14:58:57.562Z,2.57
2018-04-26T15:01:25.974Z,1.93
2018-04-26T15:03:53.494Z,1.90
2018-04-26T15:06:21.787Z,2.13
2018-04-26T15:08:49.320Z,2.33
2018-04-26T15:11:16.841Z,1.73
2018-04-26T15:13:44.790Z,2.33
2018-04-26T15:16:12.315Z,2.33
2018-04-26T15:18:39.842Z,2.10
2018-04-26T15:21:08.128Z,2.03
2018-04-26T15:23:35.807Z,2.57
2018-04-26T15:26:03.328Z,2.60
2018-04-26T15:28:31.233Z,2.33
2018-04-26T15:30:59.028Z,2.37
2018-04-26T15:33:26.565Z,2.07
2018-04-26T15:35:55.024Z,2.47
2018-04-26T15:38:22.589Z,2.37
2018-04-26T15:40:50.151Z,2.50
2018-04-26T15:43:18.823Z,1.87
2018-04-26T15:49:18.143Z,1.80
2018-04-26T15:51:45.683Z,2.67
2018-04-26T15:54:25.102Z,1.40
2018-04-26T15:57:04.409Z,2.00
2018-04-26T15:59:55.120Z,2.10
2018-04-26T16:03:02.677Z,4.20
2018-04-26T16:05:42.372Z,1.70
2018-04-26T16:08:28.418Z,2.07
2018-04-26T16:11:13.359Z,2.80
2018-04-26T16:13:59.014Z,2.37
2018-04-26T16:16:44.102Z,2.33
2018-04-26T16:19:34.022Z,3.63
2018-04-26T16:22:20.254Z,2.70
2018-04-26T16:24:59.562Z,2.50
2018-04-26T16:27:43.929Z,1.90
2018-04-26T16:30:23.395Z,2.80
2018-04-26T16:33:05.281Z,3.80
2018-04-26T16:35:45.397Z,4.37
2018-04-26T16:41:22.867Z,2.57
2018-04-26T16:43:51.266Z,1.93
2018-04-26T16:46:19.274Z,1.93
2018-04-26T16:48:47.183Z,1.60
2018-04-26T16:51:15.314Z,3.20
2018-04-26T16:53:42.873Z,2.63
2018-04-26T16:56:11.214Z,3.87
2018-04-26T16:58:38.779Z,1.60
2018-04-26T17:01:06.328Z,3.07
2018-04-26T17:03:33.899Z,2.63
2018-04-26T17:06:02.179Z,4.00
2018-04-26T17:08:29.754Z,5.10
2018-04-26T17:10:57.280Z,3.70
2018-04-26T17:13:25.668Z,4.50
2018-04-26T17:15:53.207Z,5.37
2018-04-26T17:18:20.723Z,2.97
2018-04-26T17:20:48.843Z,4.10
2018-04-26T17:23:16.408Z,5.27
2018-04-26T17:25:43.967Z,3.27
2018-04-26T17:28:11.612Z,2.43
2018-04-26T17:30:39.290Z,6.07
2018-04-26T17:33:07.718Z,4.27
2018-04-26T17:35:35.831Z,5.27
2018-04-26T17:38:03.355Z,3.77
2018-04-26T17:40:30.879Z,3.27
2018-04-26T17:42:59.114Z,3.73
2018-04-26T17:45:26.995Z,3.47
2018-04-26T17:47:55.325Z,2.23
2018-04-26T17:50:23.337Z,1.77
2018-04-26T17:52:51.530Z,2.00
2018-04-26T17:55:19.458Z,2.50
2018-04-26T17:57:46.989Z,4.13
2018-04-26T18:00:14.513Z,2.30
2018-04-26T18:02:42.067Z,2.87
2018-04-26T18:05:10.111Z,3.80
2018-04-26T18:07:37.659Z,1.47
2018-04-26T18:10:05.256Z,4.50
2018-04-26T18:12:33.367Z,1.70
2018-04-26T18:15:01.716Z,3.20
2018-04-26T18:17:29.290Z,2.27
2018-04-26T18:20:08.148Z,4.87
2018-04-26T18:22:25.463Z,1.87
2018-04-26T18:24:53.596Z,2.20
2018-04-26T18:27:21.117Z,2.27
2018-04-26T18:29:48.734Z,2.30
2018-04-26T18:32:16.951Z,3.17
2018-04-26T18:34:45.367Z,2.53
2018-04-26T18:37:12.897Z,2.30
2018-04-26T18:39:41.237Z,2.87
2018-04-26T18:42:08.752Z,3.77
2018-04-26T18:44:37.075Z,2.33
2018-04-26T18:47:05.582Z,2.30
2018-04-26T18:49:33.760Z,1.80
2018-04-26T18:52:01.723Z,4.47
2018-04-26T18:54:29.356Z,5.17
2018-04-26T18:56:57.014Z,4.10
2018-04-26T18:59:24.498Z,3.13
2018-04-26T19:01:52.054Z,2.60
2018-04-26T19:04:19.592Z,2.70
2018-04-26T19:06:47.646Z,3.53
2018-04-26T19:09:15.917Z,2.00
2018-04-26T19:11:43.755Z,3.30
2018-04-26T19:14:12.076Z,2.30
2018-04-26T19:16:40.214Z,2.60
2018-04-26T19:19:07.855Z,4.10
2018-04-26T19:21:35.919Z,3.47
2018-04-26T19:24:03.458Z,4.00
2018-04-26T19:26:30.993Z,6.47
2018-04-26T19:28:58.627Z,4.50
2018-04-26T19:31:26.153Z,4.83
2018-04-26T19:33:54.415Z,3.83
2018-04-26T19:36:21.941Z,1.77
2018-04-26T19:38:50.107Z,2.70
2018-04-26T19:41:17.628Z,1.80
2018-04-26T19:43:45.873Z,2.93
2018-04-26T19:46:13.806Z,3.23
2018-04-26T19:48:41.870Z,2.93
2018-04-26T19:51:10.271Z,3.00
2018-04-26T19:53:38.035Z,2.93
2018-04-26T19:56:05.570Z,5.83
2018-04-26T19:58:33.155Z,4.27
2018-04-26T20:01:00.678Z,4.10
2018-04-26T20:03:28.558Z,2.67
2018-04-26T20:05:56.675Z,5.60
2018-04-26T20:08:25.035Z,4.20
2018-04-26T20:10:52.551Z,4.63
2018-04-26T20:13:20.499Z,3.17
2018-04-26T20:15:48.108Z,3.20
2018-04-26T20:18:15.636Z,2.63
2018-04-26T20:20:43.815Z,2.60
2018-04-26T20:23:11.347Z,2.33
2018-04-26T20:25:38.919Z,2.07
2018-04-26T20:28:06.490Z,2.57
2018-04-26T20:30:34.080Z,1.90
2018-04-26T20:33:02.566Z,3.87
2018-04-26T20:35:30.100Z,2.00
2018-04-26T20:37:57.639Z,3.77
2018-04-26T20:40:25.250Z,2.40
2018-04-26T20:42:52.784Z,2.70
2018-04-26T20:45:21.247Z,3.30
2018-04-26T20:47:49.363Z,4.67
2018-04-26T20:50:17.661Z,2.40
2018-04-26T20:52:45.202Z,2.43
2018-04-26T20:55:12.726Z,3.43
2018-04-26T20:57:40.295Z,3.80
2018-04-26T21:00:07.923Z,2.40
2018-04-26T21:02:35.472Z,2.03
2018-04-26T21:05:03.682Z,3.67
2018-04-26T21:07:31.774Z,3.97
2018-04-26T21:09:59.371Z,4.07
2018-04-26T21:12:27.317Z,3.37
2018-04-26T21:14:55.373Z,3.43
2018-04-26T21:17:22.893Z,5.53
2018-04-26T21:19:51.196Z,2.80
2018-04-26T21:22:19.575Z,6.17
2018-04-26T21:24:47.092Z,4.93
2018-04-26T21:27:14.614Z,4.07
2018-04-26T21:29:42.607Z,4.33
2018-04-26T21:32:10.959Z,6.07
2018-04-26T21:34:38.579Z,4.23
2018-04-26T21:37:06.109Z,4.93
2018-04-26T21:39:34.362Z,2.40
2018-04-26T21:42:01.917Z,4.23
2018-04-26T21:44:30.283Z,3.70
2018-04-26T21:46:58.378Z,9.70
2018-04-26T21:49:26.037Z,3.47
2018-04-26T21:51:59.225Z,4.67
2018-04-26T21:54:32.211Z,4.90
2018-04-26T21:57:05.371Z,3.83
2018-04-26T21:59:38.510Z,2.93
2018-04-26T22:02:12.590Z,5.93
2018-04-26T22:04:46.471Z,5.23
2018-04-26T22:07:14.015Z,4.37
2018-04-26T22:09:41.550Z,6.40
2018-04-26T22:12:09.795Z,5.97
2018-04-26T22:14:38.169Z,5.67
2018-04-26T22:17:05.716Z,5.60
2018-04-26T22:19:34.327Z,3.20
2018-04-26T22:22:01.888Z,4.33
2018-04-26T22:24:30.288Z,3.77
2018-04-26T22:26:57.955Z,7.00
2018-04-26T22:29:25.518Z,5.53
2018-04-26T22:31:53.118Z,4.30
2018-04-26T22:34:21.754Z,4.43
2018-04-26T22:36:49.288Z,5.93
2018-04-26T22:39:16.818Z,3.53
2018-04-26T22:41:45.215Z,3.83
2018-04-26T22:44:13.239Z,3.30
2018-04-26T22:46:40.776Z,4.50
2018-04-26T22:49:08.762Z,3.90
2018-04-26T22:51:36.941Z,2.87
2018-04-26T22:54:04.466Z,3.80
2018-04-26T22:56:31.982Z,3.77
2018-04-26T22:58:59.666Z,2.53
2018-04-26T23:01:27.312Z,3.53
2018-04-26T23:03:55.614Z,3.53
2018-04-26T23:06:23.784Z,2.07
2018-04-26T23:08:51.967Z,3.63
2018-04-26T23:11:20.033Z,2.80
2018-04-26T23:13:48.622Z,2.97
2018-04-26T23:16:16.144Z,5.37
2018-04-26T23:18:43.666Z,3.03
2018-04-26T23:21:11.876Z,1.93
2018-04-26T23:23:39.454Z,2.90
2018-04-26T23:26:06.986Z,4.20
2018-04-26T23:28:34.551Z,4.30
2018-04-26T23:31:02.074Z,3.60
2018-04-26T23:33:30.279Z,4.23
2018-04-26T23:35:57.914Z,2.83
2018-04-26T23:38:25.432Z,4.17
2018-04-26T23:40:53.641Z,4.10
2018-04-26T23:43:21.974Z,6.50
2018-04-26T23:45:49.502Z,3.30
2018-04-26T23:48:17.684Z,4.77
2018-04-26T23:50:45.939Z,4.50
2018-04-26T23:53:13.460Z,3.47
2018-04-26T23:55:40.999Z,3.23
2018-04-26T23:58:08.579Z,5.30
